Terminal Aerodrome Forecast
Issued by NWS

Home | Current Version | Previous Version | Text Only | Print | Product List | Glossary On
Versions: 1 2 3 4 5 6 7 8 9 10 11 12
000
FTUS42 KTAE 240521
TAFDHN
TAF
KDHN 240521Z 2406/2506 08008KT P6SM SKC
     FM240900 10008KT P6SM OVC020
     FM241500 11011KT P6SM FEW050=

USA.gov is the U.S. government's official web portal to all federal, state and local government web resources and services.